Aviation Digital Data Service (ADDS)

Output produced by METARs form (1146 UTC 16 February 2019)
found at http://www.aviationweather.gov/metar/data/
 
METAR text: RJOA 161100Z 30007KT 9999 FEW020 BKN025 04/M03 Q1017
Conditions at: RJOA (NEW HIROSHIMA , JP) observed 1100 UTC 16 February 2019
Temperature: 4.0°C (39°F)
Dewpoint: -3.0°C (27°F) [RH = 60%]
Pressure (altimeter): 30.03 inches Hg (1017.0 mb)
Winds: from the WNW (300 degrees) at 8 MPH (7 knots; 3.6 m/s)
Visibility: 6 or more miles (10+ km)
Ceiling: 2500 feet AGL
Clouds: few clouds at 2000 feet AGL
broken clouds at 2500 feet AGL
Weather: no significant weather observed at this time

Forecast for: RJOA (NEW HIROSHIMA , JP)
Text: TAF RJOA 161106Z 1612/1718 32006KT 9999 FEW020 SCT040
Forecast period: 1200 UTC 16 February 2019 to 1800 UTC 17 February 2019
Forecast type: FROM: standard forecast or significant change
Winds: from the NW (320 degrees) at 7 MPH (6 knots; 3.1 m/s)
Visibility: 6 or more miles 10+ km)
Ceiling: at least 12,000 feet AGL
Clouds: few clouds at 2000 feet AGL
scattered clouds at 4000 feet AGL
Weather: no significant weather forecast for this period